sensor_id;sensor_type;location;lat;lon;timestamp;temperature;humidity
5055;DHT22;13829;48.990;8.346;2023-08-24T00:01:58;22.30;99.90
5055;DHT22;13829;48.990;8.346;2023-08-24T00:04:25;22.30;99.90
5055;DHT22;13829;48.990;8.346;2023-08-24T00:06:52;22.40;99.90
5055;DHT22;13829;48.990;8.346;2023-08-24T00:09:19;22.40;99.90
5055;DHT22;13829;48.990;8.346;2023-08-24T00:11:46;22.50;99.90
5055;DHT22;13829;48.990;8.346;2023-08-24T00:14:13;22.40;99.90
5055;DHT22;13829;48.990;8.346;2023-08-24T00:16:42;22.50;99.90
5055;DHT22;13829;48.990;8.346;2023-08-24T00:19:09;22.40;99.90
5055;DHT22;13829;48.990;8.346;2023-08-24T00:21:36;22.40;99.90
5055;DHT22;13829;48.990;8.346;2023-08-24T00:24:03;22.50;99.90
5055;DHT22;13829;48.990;8.346;2023-08-24T00:26:30;22.40;99.90
5055;DHT22;13829;48.990;8.346;2023-08-24T00:28:57;22.50;99.90
5055;DHT22;13829;48.990;8.346;2023-08-24T00:31:24;22.50;99.90
5055;DHT22;13829;48.990;8.346;2023-08-24T00:33:52;22.50;99.90
5055;DHT22;13829;48.990;8.346;2023-08-24T00:36:19;22.40;99.90
5055;DHT22;13829;48.990;8.346;2023-08-24T00:38:48;22.40;99.90
5055;DHT22;13829;48.990;8.346;2023-08-24T00:41:17;22.40;99.90
5055;DHT22;13829;48.990;8.346;2023-08-24T00:43:44;22.30;99.90
5055;DHT22;13829;48.990;8.346;2023-08-24T00:46:12;22.30;99.90
5055;DHT22;13829;48.990;8.346;2023-08-24T00:48:39;22.30;99.90
5055;DHT22;13829;48.990;8.346;2023-08-24T00:51:08;22.30;99.90
5055;DHT22;13829;48.990;8.346;2023-08-24T00:53:35;22.30;99.90
5055;DHT22;13829;48.990;8.346;2023-08-24T00:56:04;22.30;99.90
5055;DHT22;13829;48.990;8.346;2023-08-24T00:58:32;22.20;99.90
5055;DHT22;13829;48.990;8.346;2023-08-24T01:01:00;22.30;99.90
5055;DHT22;13829;48.990;8.346;2023-08-24T01:03:27;22.40;99.90
5055;DHT22;13829;48.990;8.346;2023-08-24T01:05:54;22.40;99.90
5055;DHT22;13829;48.990;8.346;2023-08-24T01:08:23;22.40;99.90
5055;DHT22;13829;48.990;8.346;2023-08-24T01:10:57;22.40;99.90
5055;DHT22;13829;48.990;8.346;2023-08-24T01:13:33;22.40;99.90
5055;DHT22;13829;48.990;8.346;2023-08-24T01:16:11;22.50;99.90
5055;DHT22;13829;48.990;8.346;2023-08-24T01:18:42;22.50;99.90
5055;DHT22;13829;48.990;8.346;2023-08-24T01:21:12;22.60;99.90
5055;DHT22;13829;48.990;8.346;2023-08-24T01:26:33;22.30;99.90
5055;DHT22;13829;48.990;8.346;2023-08-24T01:29:01;22.30;99.90
5055;DHT22;13829;48.990;8.346;2023-08-24T01:31:31;22.40;99.90
5055;DHT22;13829;48.990;8.346;2023-08-24T01:33:58;22.20;99.90
5055;DHT22;13829;48.990;8.346;2023-08-24T01:36:25;22.10;99.90
5055;DHT22;13829;48.990;8.346;2023-08-24T01:38:57;22.10;99.90
5055;DHT22;13829;48.990;8.346;2023-08-24T01:41:36;22.10;99.90
5055;DHT22;13829;48.990;8.346;2023-08-24T01:44:04;22.10;99.90
5055;DHT22;13829;48.990;8.346;2023-08-24T01:46:36;22.20;99.90
5055;DHT22;13829;48.990;8.346;2023-08-24T01:49:04;22.10;99.90
5055;DHT22;13829;48.990;8.346;2023-08-24T01:51:34;22.10;99.90
5055;DHT22;13829;48.990;8.346;2023-08-24T01:54:01;22.10;99.90
5055;DHT22;13829;48.990;8.346;2023-08-24T01:56:29;22.00;99.90
5055;DHT22;13829;48.990;8.346;2023-08-24T01:58:57;22.10;99.90
5055;DHT22;13829;48.990;8.346;2023-08-24T02:01:24;21.90;99.90
5055;DHT22;13829;48.990;8.346;2023-08-24T02:03:51;22.10;99.90
5055;DHT22;13829;48.990;8.346;2023-08-24T02:06:18;22.20;99.90
5055;DHT22;13829;48.990;8.346;2023-08-24T02:08:44;22.20;99.90
5055;DHT22;13829;48.990;8.346;2023-08-24T02:11:11;22.20;99.90
5055;DHT22;13829;48.990;8.346;2023-08-24T02:13:38;22.10;99.90
5055;DHT22;13829;48.990;8.346;2023-08-24T02:16:08;22.00;99.90
5055;DHT22;13829;48.990;8.346;2023-08-24T02:18:35;22.00;99.90
5055;DHT22;13829;48.990;8.346;2023-08-24T02:21:07;21.80;99.90
5055;DHT22;13829;48.990;8.346;2023-08-24T02:23:35;21.90;99.90
5055;DHT22;13829;48.990;8.346;2023-08-24T02:26:02;21.80;99.90
5055;DHT22;13829;48.990;8.346;2023-08-24T02:28:29;21.80;99.90
5055;DHT22;13829;48.990;8.346;2023-08-24T02:31:00;21.70;99.90
5055;DHT22;13829;48.990;8.346;2023-08-24T02:33:29;21.80;99.90
5055;DHT22;13829;48.990;8.346;2023-08-24T02:35:56;21.90;99.90
5055;DHT22;13829;48.990;8.346;2023-08-24T02:38:23;21.80;99.90
5055;DHT22;13829;48.990;8.346;2023-08-24T02:41:00;21.80;99.90
5055;DHT22;13829;48.990;8.346;2023-08-24T02:43:29;21.80;99.90
5055;DHT22;13829;48.990;8.346;2023-08-24T02:46:00;21.70;99.90
5055;DHT22;13829;48.990;8.346;2023-08-24T02:48:30;21.60;99.90
5055;DHT22;13829;48.990;8.346;2023-08-24T02:50:57;21.60;99.90
5055;DHT22;13829;48.990;8.346;2023-08-24T02:53:24;21.40;99.90
5055;DHT22;13829;48.990;8.346;2023-08-24T02:55:52;21.50;99.90
5055;DHT22;13829;48.990;8.346;2023-08-24T02:58:19;21.40;99.90
5055;DHT22;13829;48.990;8.346;2023-08-24T03:00:46;21.40;99.90
5055;DHT22;13829;48.990;8.346;2023-08-24T03:03:14;21.50;99.90
5055;DHT22;13829;48.990;8.346;2023-08-24T03:05:52;21.30;99.90
5055;DHT22;13829;48.990;8.346;2023-08-24T03:08:20;21.30;99.90
5055;DHT22;13829;48.990;8.346;2023-08-24T03:10:47;21.50;99.90
5055;DHT22;13829;48.990;8.346;2023-08-24T03:13:14;21.40;99.90
5055;DHT22;13829;48.990;8.346;2023-08-24T03:15:41;21.40;99.90
5055;DHT22;13829;48.990;8.346;2023-08-24T03:18:09;21.40;99.90
5055;DHT22;13829;48.990;8.346;2023-08-24T03:20:37;21.30;99.90
5055;DHT22;13829;48.990;8.346;2023-08-24T03:23:06;21.50;99.90
5055;DHT22;13829;48.990;8.346;2023-08-24T03:25:36;21.30;99.90
5055;DHT22;13829;48.990;8.346;2023-08-24T03:28:04;21.30;99.90
5055;DHT22;13829;48.990;8.346;2023-08-24T03:30:33;21.40;99.90
5055;DHT22;13829;48.990;8.346;2023-08-24T03:33:01;21.40;99.90
5055;DHT22;13829;48.990;8.346;2023-08-24T03:35:30;21.50;99.90
5055;DHT22;13829;48.990;8.346;2023-08-24T03:37:58;21.50;99.90
5055;DHT22;13829;48.990;8.346;2023-08-24T03:40:26;21.50;99.90
5055;DHT22;13829;48.990;8.346;2023-08-24T03:42:53;21.50;99.90
5055;DHT22;13829;48.990;8.346;2023-08-24T03:45:20;21.50;99.90
5055;DHT22;13829;48.990;8.346;2023-08-24T03:47:48;21.30;99.90
5055;DHT22;13829;48.990;8.346;2023-08-24T03:50:15;21.30;99.90
5055;DHT22;13829;48.990;8.346;2023-08-24T03:52:43;21.30;99.90
5055;DHT22;13829;48.990;8.346;2023-08-24T03:55:10;21.30;99.90
5055;DHT22;13829;48.990;8.346;2023-08-24T03:57:38;21.20;99.90
5055;DHT22;13829;48.990;8.346;2023-08-24T04:00:06;21.30;99.90
5055;DHT22;13829;48.990;8.346;2023-08-24T04:02:36;21.20;99.90
5055;DHT22;13829;48.990;8.346;2023-08-24T04:05:04;21.20;99.90
5055;DHT22;13829;48.990;8.346;2023-08-24T04:07:31;21.30;99.90
5055;DHT22;13829;48.990;8.346;2023-08-24T04:09:58;21.20;99.90
5055;DHT22;13829;48.990;8.346;2023-08-24T04:12:25;21.30;99.90
5055;DHT22;13829;48.990;8.346;2023-08-24T04:14:54;21.40;99.90
5055;DHT22;13829;48.990;8.346;2023-08-24T04:17:23;21.40;99.90
5055;DHT22;13829;48.990;8.346;2023-08-24T04:19:49;21.40;99.90
5055;DHT22;13829;48.990;8.346;2023-08-24T04:22:16;21.50;99.90
5055;DHT22;13829;48.990;8.346;2023-08-24T04:24:43;21.40;99.90
5055;DHT22;13829;48.990;8.346;2023-08-24T04:27:10;21.40;99.90
5055;DHT22;13829;48.990;8.346;2023-08-24T04:29:37;21.40;99.90
5055;DHT22;13829;48.990;8.346;2023-08-24T04:32:06;21.40;99.90
5055;DHT22;13829;48.990;8.346;2023-08-24T04:34:33;21.40;99.90
5055;DHT22;13829;48.990;8.346;2023-08-24T04:37:00;21.40;99.90
5055;DHT22;13829;48.990;8.346;2023-08-24T04:39:28;21.40;99.90
5055;DHT22;13829;48.990;8.346;2023-08-24T04:41:56;21.40;99.90
5055;DHT22;13829;48.990;8.346;2023-08-24T04:44:22;21.60;99.90
5055;DHT22;13829;48.990;8.346;2023-08-24T04:46:50;21.60;99.90
5055;DHT22;13829;48.990;8.346;2023-08-24T04:49:18;21.20;99.90
5055;DHT22;13829;48.990;8.346;2023-08-24T04:51:45;21.20;99.90
5055;DHT22;13829;48.990;8.346;2023-08-24T04:54:12;21.10;99.90
5055;DHT22;13829;48.990;8.346;2023-08-24T04:56:39;21.30;99.90
5055;DHT22;13829;48.990;8.346;2023-08-24T04:59:06;21.50;99.90
5055;DHT22;13829;48.990;8.346;2023-08-24T05:01:33;21.40;99.90
5055;DHT22;13829;48.990;8.346;2023-08-24T05:04:00;21.50;99.90
5055;DHT22;13829;48.990;8.346;2023-08-24T05:06:29;21.60;99.90
5055;DHT22;13829;48.990;8.346;2023-08-24T05:08:56;21.60;99.90
5055;DHT22;13829;48.990;8.346;2023-08-24T05:11:25;21.70;99.90
5055;DHT22;13829;48.990;8.346;2023-08-24T05:13:54;21.80;99.90
5055;DHT22;13829;48.990;8.346;2023-08-24T05:16:21;22.00;99.90
5055;DHT22;13829;48.990;8.346;2023-08-24T05:18:48;22.20;99.90
5055;DHT22;13829;48.990;8.346;2023-08-24T05:21:15;22.30;99.90
5055;DHT22;13829;48.990;8.346;2023-08-24T05:23:44;22.40;99.90
5055;DHT22;13829;48.990;8.346;2023-08-24T05:26:10;22.40;99.90
5055;DHT22;13829;48.990;8.346;2023-08-24T05:28:37;22.30;99.90
5055;DHT22;13829;48.990;8.346;2023-08-24T05:31:04;22.30;99.90
5055;DHT22;13829;48.990;8.346;2023-08-24T05:33:31;22.30;99.90
5055;DHT22;13829;48.990;8.346;2023-08-24T05:35:58;22.20;99.90
5055;DHT22;13829;48.990;8.346;2023-08-24T05:38:25;22.20;99.90
5055;DHT22;13829;48.990;8.346;2023-08-24T05:40:54;22.20;99.90
5055;DHT22;13829;48.990;8.346;2023-08-24T05:43:20;22.20;99.90
5055;DHT22;13829;48.990;8.346;2023-08-24T05:45:48;22.20;99.90
5055;DHT22;13829;48.990;8.346;2023-08-24T05:48:15;22.30;99.90
5055;DHT22;13829;48.990;8.346;2023-08-24T05:50:43;22.10;99.90
5055;DHT22;13829;48.990;8.346;2023-08-24T05:53:10;22.40;99.90
5055;DHT22;13829;48.990;8.346;2023-08-24T05:55:38;22.10;99.90
5055;DHT22;13829;48.990;8.346;2023-08-24T05:58:06;22.30;99.90
5055;DHT22;13829;48.990;8.346;2023-08-24T06:00:33;22.30;99.90
5055;DHT22;13829;48.990;8.346;2023-08-24T06:03:00;22.30;99.90
5055;DHT22;13829;48.990;8.346;2023-08-24T06:05:29;22.20;99.90
5055;DHT22;13829;48.990;8.346;2023-08-24T06:07:56;22.20;99.90
5055;DHT22;13829;48.990;8.346;2023-08-24T06:10:23;22.00;99.90
5055;DHT22;13829;48.990;8.346;2023-08-24T06:12:52;21.80;99.90
5055;DHT22;13829;48.990;8.346;2023-08-24T06:15:20;21.80;99.90
5055;DHT22;13829;48.990;8.346;2023-08-24T06:17:49;21.70;99.90
5055;DHT22;13829;48.990;8.346;2023-08-24T06:20:17;21.80;99.90
5055;DHT22;13829;48.990;8.346;2023-08-24T06:22:44;21.70;99.90
5055;DHT22;13829;48.990;8.346;2023-08-24T06:25:11;21.80;99.90
5055;DHT22;13829;48.990;8.346;2023-08-24T06:27:38;21.90;99.90
5055;DHT22;13829;48.990;8.346;2023-08-24T06:30:06;22.00;99.90
5055;DHT22;13829;48.990;8.346;2023-08-24T06:32:35;22.20;99.90
5055;DHT22;13829;48.990;8.346;2023-08-24T06:35:02;21.90;99.90
5055;DHT22;13829;48.990;8.346;2023-08-24T06:37:30;22.10;99.90
5055;DHT22;13829;48.990;8.346;2023-08-24T06:39:56;22.30;99.90
5055;DHT22;13829;48.990;8.346;2023-08-24T06:42:23;22.40;99.90
5055;DHT22;13829;48.990;8.346;2023-08-24T06:44:50;22.50;99.90
5055;DHT22;13829;48.990;8.346;2023-08-24T06:47:17;22.50;99.90
5055;DHT22;13829;48.990;8.346;2023-08-24T06:49:45;22.60;99.90
5055;DHT22;13829;48.990;8.346;2023-08-24T06:52:12;22.90;99.90
5055;DHT22;13829;48.990;8.346;2023-08-24T06:54:39;22.60;99.90
5055;DHT22;13829;48.990;8.346;2023-08-24T06:57:06;23.10;99.90
5055;DHT22;13829;48.990;8.346;2023-08-24T06:59:33;23.30;99.90
5055;DHT22;13829;48.990;8.346;2023-08-24T07:02:00;23.60;99.90
5055;DHT22;13829;48.990;8.346;2023-08-24T07:04:29;23.80;99.90
5055;DHT22;13829;48.990;8.346;2023-08-24T07:06:58;24.70;99.90
5055;DHT22;13829;48.990;8.346;2023-08-24T07:09:25;25.70;99.20
5055;DHT22;13829;48.990;8.346;2023-08-24T07:11:53;26.60;97.20
5055;DHT22;13829;48.990;8.346;2023-08-24T07:14:20;26.90;96.10
5055;DHT22;13829;48.990;8.346;2023-08-24T07:16:47;27.70;94.30
5055;DHT22;13829;48.990;8.346;2023-08-24T07:19:13;27.80;93.70
5055;DHT22;13829;48.990;8.346;2023-08-24T07:21:40;28.30;93.00
5055;DHT22;13829;48.990;8.346;2023-08-24T07:24:09;29.10;91.50
5055;DHT22;13829;48.990;8.346;2023-08-24T07:26:36;29.10;90.70
5055;DHT22;13829;48.990;8.346;2023-08-24T07:29:02;29.20;90.30
5055;DHT22;13829;48.990;8.346;2023-08-24T07:31:29;29.90;88.80
5055;DHT22;13829;48.990;8.346;2023-08-24T07:33:56;30.00;87.30
5055;DHT22;13829;48.990;8.346;2023-08-24T07:36:24;30.10;86.60
5055;DHT22;13829;48.990;8.346;2023-08-24T07:38:51;30.40;85.20
5055;DHT22;13829;48.990;8.346;2023-08-24T07:41:19;30.10;84.50
5055;DHT22;13829;48.990;8.346;2023-08-24T07:43:46;30.30;84.00
5055;DHT22;13829;48.990;8.346;2023-08-24T07:46:13;30.80;83.30
5055;DHT22;13829;48.990;8.346;2023-08-24T07:48:40;31.10;81.50
5055;DHT22;13829;48.990;8.346;2023-08-24T07:51:07;31.40;80.70
5055;DHT22;13829;48.990;8.346;2023-08-24T07:53:34;31.60;79.50
5055;DHT22;13829;48.990;8.346;2023-08-24T07:56:01;31.60;79.70
5055;DHT22;13829;48.990;8.346;2023-08-24T07:58:29;31.60;79.10
5055;DHT22;13829;48.990;8.346;2023-08-24T08:00:57;31.50;78.60
5055;DHT22;13829;48.990;8.346;2023-08-24T08:03:25;31.60;79.20
5055;DHT22;13829;48.990;8.346;2023-08-24T08:05:52;31.90;77.60
5055;DHT22;13829;48.990;8.346;2023-08-24T08:08:20;31.70;77.10
5055;DHT22;13829;48.990;8.346;2023-08-24T08:10:47;31.70;77.50
5055;DHT22;13829;48.990;8.346;2023-08-24T08:13:14;31.80;77.50
5055;DHT22;13829;48.990;8.346;2023-08-24T08:15:42;32.10;77.00
5055;DHT22;13829;48.990;8.346;2023-08-24T08:18:09;32.10;76.70
5055;DHT22;13829;48.990;8.346;2023-08-24T08:20:36;32.10;76.90
5055;DHT22;13829;48.990;8.346;2023-08-24T08:23:03;31.60;77.00
5055;DHT22;13829;48.990;8.346;2023-08-24T08:25:30;31.40;77.00
5055;DHT22;13829;48.990;8.346;2023-08-24T08:27:57;31.20;78.50
5055;DHT22;13829;48.990;8.346;2023-08-24T08:30:23;30.80;78.30
5055;DHT22;13829;48.990;8.346;2023-08-24T08:32:52;30.40;79.80
5055;DHT22;13829;48.990;8.346;2023-08-24T08:35:22;30.20;80.40
5055;DHT22;13829;48.990;8.346;2023-08-24T08:37:49;30.20;80.80
5055;DHT22;13829;48.990;8.346;2023-08-24T08:40:17;30.00;81.50
5055;DHT22;13829;48.990;8.346;2023-08-24T08:42:45;29.90;81.70
5055;DHT22;13829;48.990;8.346;2023-08-24T08:45:12;29.80;82.30
5055;DHT22;13829;48.990;8.346;2023-08-24T08:47:40;29.70;82.30
5055;DHT22;13829;48.990;8.346;2023-08-24T08:50:09;29.40;82.50
5055;DHT22;13829;48.990;8.346;2023-08-24T08:52:37;29.20;83.30
5055;DHT22;13829;48.990;8.346;2023-08-24T08:55:04;29.20;83.80
5055;DHT22;13829;48.990;8.346;2023-08-24T08:57:35;29.00;84.10
5055;DHT22;13829;48.990;8.346;2023-08-24T09:00:04;28.90;84.70
5055;DHT22;13829;48.990;8.346;2023-08-24T09:02:33;28.90;84.80
5055;DHT22;13829;48.990;8.346;2023-08-24T09:05:01;29.00;85.00
5055;DHT22;13829;48.990;8.346;2023-08-24T09:07:32;29.00;84.80
5055;DHT22;13829;48.990;8.346;2023-08-24T09:10:01;28.90;85.70
5055;DHT22;13829;48.990;8.346;2023-08-24T09:12:31;29.10;86.00
5055;DHT22;13829;48.990;8.346;2023-08-24T09:14:58;29.00;85.20
5055;DHT22;13829;48.990;8.346;2023-08-24T09:17:25;29.00;85.80
5055;DHT22;13829;48.990;8.346;2023-08-24T09:19:58;28.90;86.80
5055;DHT22;13829;48.990;8.346;2023-08-24T09:22:25;29.00;86.80
5055;DHT22;13829;48.990;8.346;2023-08-24T09:24:54;29.10;87.80
5055;DHT22;13829;48.990;8.346;2023-08-24T09:27:21;29.20;88.20
5055;DHT22;13829;48.990;8.346;2023-08-24T09:29:49;29.10;87.60
5055;DHT22;13829;48.990;8.346;2023-08-24T09:32:21;29.00;87.70
5055;DHT22;13829;48.990;8.346;2023-08-24T09:34:49;28.90;88.60
5055;DHT22;13829;48.990;8.346;2023-08-24T09:37:16;29.00;88.90
5055;DHT22;13829;48.990;8.346;2023-08-24T09:39:44;29.10;90.90
5055;DHT22;13829;48.990;8.346;2023-08-24T09:42:13;29.10;88.30
5055;DHT22;13829;48.990;8.346;2023-08-24T09:44:43;29.10;89.60
5055;DHT22;13829;48.990;8.346;2023-08-24T09:47:11;29.00;89.30
5055;DHT22;13829;48.990;8.346;2023-08-24T09:49:38;28.80;89.80
5055;DHT22;13829;48.990;8.346;2023-08-24T09:52:07;28.70;89.90
5055;DHT22;13829;48.990;8.346;2023-08-24T09:54:36;28.70;90.00
5055;DHT22;13829;48.990;8.346;2023-08-24T09:57:05;28.80;90.20
5055;DHT22;13829;48.990;8.346;2023-08-24T09:59:39;29.00;90.90
5055;DHT22;13829;48.990;8.346;2023-08-24T10:02:14;29.10;90.20
5055;DHT22;13829;48.990;8.346;2023-08-24T10:04:44;29.20;91.20
5055;DHT22;13829;48.990;8.346;2023-08-24T10:07:15;29.20;90.40
5055;DHT22;13829;48.990;8.346;2023-08-24T10:09:52;29.20;90.30
5055;DHT22;13829;48.990;8.346;2023-08-24T10:12:28;29.10;90.60
5055;DHT22;13829;48.990;8.346;2023-08-24T10:15:00;29.10;90.70
5055;DHT22;13829;48.990;8.346;2023-08-24T10:17:29;29.20;90.80
5055;DHT22;13829;48.990;8.346;2023-08-24T10:19:58;29.30;91.50
5055;DHT22;13829;48.990;8.346;2023-08-24T10:22:29;29.50;90.70
5055;DHT22;13829;48.990;8.346;2023-08-24T10:24:58;29.50;90.60
5055;DHT22;13829;48.990;8.346;2023-08-24T10:27:27;29.50;90.80
5055;DHT22;13829;48.990;8.346;2023-08-24T10:29:55;29.50;90.80
5055;DHT22;13829;48.990;8.346;2023-08-24T10:32:25;29.50;91.10
5055;DHT22;13829;48.990;8.346;2023-08-24T10:34:54;29.60;91.50
5055;DHT22;13829;48.990;8.346;2023-08-24T10:37:25;29.80;91.40
5055;DHT22;13829;48.990;8.346;2023-08-24T10:39:53;29.70;92.50
5055;DHT22;13829;48.990;8.346;2023-08-24T10:42:20;29.90;91.40
5055;DHT22;13829;48.990;8.346;2023-08-24T10:44:48;29.90;91.20
5055;DHT22;13829;48.990;8.346;2023-08-24T10:47:18;30.00;91.20
5055;DHT22;13829;48.990;8.346;2023-08-24T10:49:58;30.00;90.50
5055;DHT22;13829;48.990;8.346;2023-08-24T10:52:30;29.90;90.50
5055;DHT22;13829;48.990;8.346;2023-08-24T10:55:00;29.90;90.60
5055;DHT22;13829;48.990;8.346;2023-08-24T10:57:35;30.00;90.70
5055;DHT22;13829;48.990;8.346;2023-08-24T11:00:05;30.00;90.60
5055;DHT22;13829;48.990;8.346;2023-08-24T11:02:45;30.00;90.40
5055;DHT22;13829;48.990;8.346;2023-08-24T11:05:18;30.10;90.60
5055;DHT22;13829;48.990;8.346;2023-08-24T11:07:56;30.10;90.90
5055;DHT22;13829;48.990;8.346;2023-08-24T11:10:26;30.20;91.10
5055;DHT22;13829;48.990;8.346;2023-08-24T11:13:11;30.20;90.60
5055;DHT22;13829;48.990;8.346;2023-08-24T11:15:40;30.20;90.10
5055;DHT22;13829;48.990;8.346;2023-08-24T11:18:15;30.20;90.30
5055;DHT22;13829;48.990;8.346;2023-08-24T11:20:49;30.30;90.80
5055;DHT22;13829;48.990;8.346;2023-08-24T11:23:19;30.30;90.60
5055;DHT22;13829;48.990;8.346;2023-08-24T11:25:48;30.40;91.10
5055;DHT22;13829;48.990;8.346;2023-08-24T11:28:17;30.40;90.70
5055;DHT22;13829;48.990;8.346;2023-08-24T11:30:45;30.50;90.20
5055;DHT22;13829;48.990;8.346;2023-08-24T11:33:13;30.40;90.20
5055;DHT22;13829;48.990;8.346;2023-08-24T11:35:43;30.50;90.50
5055;DHT22;13829;48.990;8.346;2023-08-24T11:38:12;30.50;90.50
5055;DHT22;13829;48.990;8.346;2023-08-24T11:40:39;30.50;91.20
5055;DHT22;13829;48.990;8.346;2023-08-24T11:43:06;30.50;90.10
5055;DHT22;13829;48.990;8.346;2023-08-24T11:45:35;30.50;90.40
5055;DHT22;13829;48.990;8.346;2023-08-24T11:48:06;30.50;91.10
5055;DHT22;13829;48.990;8.346;2023-08-24T11:50:34;30.50;90.50
5055;DHT22;13829;48.990;8.346;2023-08-24T11:53:06;30.50;90.70
5055;DHT22;13829;48.990;8.346;2023-08-24T11:55:39;30.60;90.80
5055;DHT22;13829;48.990;8.346;2023-08-24T11:58:13;30.70;91.20
5055;DHT22;13829;48.990;8.346;2023-08-24T12:00:42;30.80;92.00
5055;DHT22;13829;48.990;8.346;2023-08-24T12:03:10;31.00;91.40
5055;DHT22;13829;48.990;8.346;2023-08-24T12:05:37;31.30;91.30
5055;DHT22;13829;48.990;8.346;2023-08-24T12:08:05;31.40;90.90
5055;DHT22;13829;48.990;8.346;2023-08-24T12:10:32;31.40;90.70
5055;DHT22;13829;48.990;8.346;2023-08-24T12:13:03;31.50;90.50
5055;DHT22;13829;48.990;8.346;2023-08-24T12:15:34;31.60;91.00
5055;DHT22;13829;48.990;8.346;2023-08-24T12:18:07;31.80;91.10
5055;DHT22;13829;48.990;8.346;2023-08-24T12:20:35;31.90;90.00
5055;DHT22;13829;48.990;8.346;2023-08-24T12:23:02;31.90;90.40
5055;DHT22;13829;48.990;8.346;2023-08-24T12:25:30;32.00;90.30
5055;DHT22;13829;48.990;8.346;2023-08-24T12:28:12;32.00;89.40
5055;DHT22;13829;48.990;8.346;2023-08-24T12:30:45;31.90;89.50
5055;DHT22;13829;48.990;8.346;2023-08-24T12:33:26;31.90;88.90
5055;DHT22;13829;48.990;8.346;2023-08-24T12:35:55;31.80;89.60
5055;DHT22;13829;48.990;8.346;2023-08-24T12:38:22;31.90;90.40
5055;DHT22;13829;48.990;8.346;2023-08-24T12:40:50;32.10;90.30
5055;DHT22;13829;48.990;8.346;2023-08-24T12:43:19;32.10;89.60
5055;DHT22;13829;48.990;8.346;2023-08-24T12:45:46;32.00;89.40
5055;DHT22;13829;48.990;8.346;2023-08-24T12:48:13;32.00;89.80
5055;DHT22;13829;48.990;8.346;2023-08-24T12:50:40;32.00;89.00
5055;DHT22;13829;48.990;8.346;2023-08-24T12:53:07;31.90;89.60
5055;DHT22;13829;48.990;8.346;2023-08-24T12:55:36;31.90;89.40
5055;DHT22;13829;48.990;8.346;2023-08-24T12:58:05;31.90;89.10
5055;DHT22;13829;48.990;8.346;2023-08-24T13:00:33;32.10;90.00
5055;DHT22;13829;48.990;8.346;2023-08-24T13:03:00;32.20;89.70
5055;DHT22;13829;48.990;8.346;2023-08-24T13:05:28;32.20;88.80
5055;DHT22;13829;48.990;8.346;2023-08-24T13:07:54;32.20;88.60
5055;DHT22;13829;48.990;8.346;2023-08-24T13:10:22;32.10;89.80
5055;DHT22;13829;48.990;8.346;2023-08-24T13:12:50;31.90;89.70
5055;DHT22;13829;48.990;8.346;2023-08-24T13:15:17;31.80;90.30
5055;DHT22;13829;48.990;8.346;2023-08-24T13:17:47;31.70;90.80
5055;DHT22;13829;48.990;8.346;2023-08-24T13:20:14;31.70;90.70
5055;DHT22;13829;48.990;8.346;2023-08-24T13:22:42;31.70;90.30
5055;DHT22;13829;48.990;8.346;2023-08-24T13:25:10;31.70;90.00
5055;DHT22;13829;48.990;8.346;2023-08-24T13:27:37;31.60;90.40
5055;DHT22;13829;48.990;8.346;2023-08-24T13:30:05;31.50;91.00
5055;DHT22;13829;48.990;8.346;2023-08-24T13:32:33;31.40;91.40
5055;DHT22;13829;48.990;8.346;2023-08-24T13:35:02;31.30;90.60
5055;DHT22;13829;48.990;8.346;2023-08-24T13:37:29;31.40;91.00
5055;DHT22;13829;48.990;8.346;2023-08-24T13:39:58;31.40;90.90
5055;DHT22;13829;48.990;8.346;2023-08-24T13:42:25;31.40;91.40
5055;DHT22;13829;48.990;8.346;2023-08-24T13:44:52;31.30;91.60
5055;DHT22;13829;48.990;8.346;2023-08-24T13:47:19;31.20;91.50
5055;DHT22;13829;48.990;8.346;2023-08-24T13:49:47;31.10;91.70
5055;DHT22;13829;48.990;8.346;2023-08-24T13:52:15;30.80;92.20
5055;DHT22;13829;48.990;8.346;2023-08-24T13:54:44;30.70;92.60
5055;DHT22;13829;48.990;8.346;2023-08-24T13:57:13;30.50;93.00
5055;DHT22;13829;48.990;8.346;2023-08-24T13:59:40;30.40;93.70
5055;DHT22;13829;48.990;8.346;2023-08-24T14:02:07;30.30;95.10
5055;DHT22;13829;48.990;8.346;2023-08-24T14:04:34;30.00;96.10
5055;DHT22;13829;48.990;8.346;2023-08-24T14:07:01;29.90;95.90
5055;DHT22;13829;48.990;8.346;2023-08-24T14:09:29;29.70;96.90
5055;DHT22;13829;48.990;8.346;2023-08-24T14:11:56;29.40;97.80
5055;DHT22;13829;48.990;8.346;2023-08-24T14:14:23;29.30;98.70
5055;DHT22;13829;48.990;8.346;2023-08-24T14:16:54;29.00;99.10
5055;DHT22;13829;48.990;8.346;2023-08-24T14:19:22;28.80;99.90
5055;DHT22;13829;48.990;8.346;2023-08-24T14:21:49;28.10;99.90
5055;DHT22;13829;48.990;8.346;2023-08-24T14:24:16;27.20;99.90
5055;DHT22;13829;48.990;8.346;2023-08-24T14:26:45;26.70;99.90
5055;DHT22;13829;48.990;8.346;2023-08-24T14:29:12;26.20;99.90
5055;DHT22;13829;48.990;8.346;2023-08-24T14:31:40;25.90;99.90
5055;DHT22;13829;48.990;8.346;2023-08-24T14:34:07;25.70;99.90
5055;DHT22;13829;48.990;8.346;2023-08-24T14:36:34;25.60;99.90
5055;DHT22;13829;48.990;8.346;2023-08-24T14:39:01;25.50;99.90
5055;DHT22;13829;48.990;8.346;2023-08-24T14:41:28;25.40;99.90
5055;DHT22;13829;48.990;8.346;2023-08-24T14:43:56;25.30;99.90
5055;DHT22;13829;48.990;8.346;2023-08-24T14:46:23;25.30;99.90
5055;DHT22;13829;48.990;8.346;2023-08-24T14:48:50;25.30;99.90
5055;DHT22;13829;48.990;8.346;2023-08-24T14:51:17;25.40;99.90
5055;DHT22;13829;48.990;8.346;2023-08-24T14:53:44;25.50;99.90
5055;DHT22;13829;48.990;8.346;2023-08-24T14:56:11;25.30;99.90
5055;DHT22;13829;48.990;8.346;2023-08-24T14:58:38;25.50;99.90
5055;DHT22;13829;48.990;8.346;2023-08-24T15:01:06;25.50;99.90
5055;DHT22;13829;48.990;8.346;2023-08-24T15:03:33;25.50;99.90
5055;DHT22;13829;48.990;8.346;2023-08-24T15:06:03;25.50;99.90
5055;DHT22;13829;48.990;8.346;2023-08-24T15:08:32;25.60;99.90
5055;DHT22;13829;48.990;8.346;2023-08-24T15:11:01;25.30;99.90
5055;DHT22;13829;48.990;8.346;2023-08-24T15:13:29;25.50;99.90
5055;DHT22;13829;48.990;8.346;2023-08-24T15:15:57;25.60;99.90
5055;DHT22;13829;48.990;8.346;2023-08-24T15:18:26;25.60;99.90
5055;DHT22;13829;48.990;8.346;2023-08-24T15:20:53;25.70;99.90
5055;DHT22;13829;48.990;8.346;2023-08-24T15:23:22;25.80;99.90
5055;DHT22;13829;48.990;8.346;2023-08-24T15:25:50;26.10;99.90
5055;DHT22;13829;48.990;8.346;2023-08-24T15:28:17;26.30;99.90
5055;DHT22;13829;48.990;8.346;2023-08-24T15:30:44;26.40;99.90
5055;DHT22;13829;48.990;8.346;2023-08-24T15:33:11;26.60;99.90
5055;DHT22;13829;48.990;8.346;2023-08-24T15:35:40;26.80;99.90
5055;DHT22;13829;48.990;8.346;2023-08-24T15:38:08;26.90;99.90
5055;DHT22;13829;48.990;8.346;2023-08-24T15:40:36;26.90;99.90
5055;DHT22;13829;48.990;8.346;2023-08-24T15:43:05;26.90;99.90
5055;DHT22;13829;48.990;8.346;2023-08-24T15:45:32;26.90;99.90
5055;DHT22;13829;48.990;8.346;2023-08-24T15:48:00;26.90;99.90
5055;DHT22;13829;48.990;8.346;2023-08-24T15:50:28;26.90;99.90
5055;DHT22;13829;48.990;8.346;2023-08-24T15:52:56;26.90;99.90
5055;DHT22;13829;48.990;8.346;2023-08-24T15:55:28;26.90;99.90